ダブリン の空港の天気 - METARとTAF

ダブリン空港 ( EIDW / DUB ) - アイルランド ダブリン
飛行場実況気象(Metar)
観測時間05/28 13:00 IST (05/28 12:00 UTC)
風向・風速北東 2m/s
視程10km以上
天気現象
少しの雲 雲底高度 670m
全天の8割程度の雲 雲底高度 5490m
気温15℃
湿度72%
気圧1019hPa
METAREIDW 281200Z 04004KT 320V140 9999 FEW022 BKN180 15/10 Q1019 NOSIG
過去の天気等 Google飛行場航空写真 Wunderground天気予報

過去48時間のMETAR

飛行場予報(TAF)
発表時間: 5/28 12:00 IST (5/28 11:00 UTC)
予報対象時間: 28日13時 IST ~ 29日13時 IST
風向・風速不定 2m/s
視程10km以上
全天の4割程度の雲 雲底高度 520m
全天の8割程度の雲 雲底高度 910m
28日13時 IST ~ 28日14時 IST に徐々に
風向・風速東 4m/s
28日19時 IST ~ 28日21時 IST に徐々に
風向・風速不定 2m/s
28日23時 IST ~ 29日13時 IST に一時的に
視程7,000m
天気現象弱い雨
全天の8割程度の雲 雲底高度 460m
28日23時 IST ~ 29日3時 IST に 確率 30% で一時的に
視程4,000m
天気現象
全天の4割程度の雲 雲底高度 150m
全天の8割程度の雲 雲底高度 300m
29日2時 IST ~ 29日5時 IST に徐々に
風向・風速北 3m/s
29日3時 IST ~ 29日6時 IST に 確率 40% で一時的に
視程4,000m
天気現象
全天の4割程度の雲 雲底高度 150m
全天の8割程度の雲 雲底高度 300m
29日5時 IST ~ 29日8時 IST に徐々に
風向・風速北北西 4m/s
29日11時 IST ~ 29日13時 IST に徐々に
風向・風速北 4m/s
TAF EIDW 281100Z 2812/2912 VRB03KT 9999 SCT017 BKN030
BECMG 2812/2813 09007KT
BECMG 2818/2820 VRB03KT
TEMPO 2822/2912 7000 -RA BKN015
PROB30 TEMPO 2822/2902 4000 RA SCT005 BKN010
BECMG 2901/2904 01006KT
PROB40 TEMPO 2902/2905 4000 RA SCT005 BKN010
BECMG 2904/2907 33007KT
BECMG 2910/2912 36008KT